createdAt,value
2022-08-31T00:01:30.920Z,20.70
2022-08-31T00:04:06.082Z,20.90
2022-08-31T00:06:38.830Z,21.10
2022-08-31T00:09:11.136Z,20.70
2022-08-31T00:11:46.386Z,20.50
2022-08-31T00:14:19.872Z,19.90
2022-08-31T00:16:52.074Z,20.80
2022-08-31T00:19:24.122Z,20.10
2022-08-31T00:21:56.698Z,20.90
2022-08-31T00:24:28.623Z,21.30
2022-08-31T00:27:01.359Z,20.80
2022-08-31T00:29:33.590Z,21.00
2022-08-31T00:32:05.834Z,20.40
2022-08-31T00:34:38.655Z,20.80
2022-08-31T00:37:10.863Z,21.20
2022-08-31T00:39:42.645Z,20.90
2022-08-31T00:42:14.896Z,20.50
2022-08-31T00:44:46.834Z,20.90
2022-08-31T00:47:20.904Z,21.00
2022-08-31T00:49:52.881Z,21.40
2022-08-31T00:52:39.249Z,20.50
2022-08-31T00:55:27.737Z,20.90
2022-08-31T00:58:03.881Z,20.40
2022-08-31T01:00:36.634Z,19.80
2022-08-31T01:03:09.281Z,20.30
2022-08-31T01:05:42.613Z,20.50
2022-08-31T01:08:14.534Z,20.50
2022-08-31T01:10:47.733Z,20.90
2022-08-31T01:13:20.186Z,21.30
2022-08-31T01:15:57.744Z,21.70
2022-08-31T01:18:31.283Z,21.20
2022-08-31T01:21:28.725Z,20.90
2022-08-31T01:24:03.301Z,20.50
2022-08-31T01:26:38.967Z,21.10
2022-08-31T01:29:12.032Z,21.00
2022-08-31T01:31:49.990Z,21.50
2022-08-31T01:34:22.493Z,21.90
2022-08-31T01:36:54.671Z,21.70
2022-08-31T01:39:28.005Z,21.30
2022-08-31T01:42:00.055Z,20.90
2022-08-31T01:44:34.464Z,21.00
2022-08-31T01:47:06.719Z,20.60
2022-08-31T01:49:40.340Z,20.80
2022-08-31T01:52:15.581Z,20.50
2022-08-31T01:54:48.557Z,20.40
2022-08-31T01:57:33.315Z,19.40
2022-08-31T02:00:26.647Z,20.30
2022-08-31T02:03:01.273Z,20.10
2022-08-31T02:05:35.962Z,20.30
2022-08-31T02:08:09.973Z,20.40
2022-08-31T02:10:42.746Z,20.00
2022-08-31T02:13:15.843Z,20.00
2022-08-31T02:15:47.736Z,19.90
2022-08-31T02:18:21.432Z,20.00
2022-08-31T02:20:55.251Z,19.90
2022-08-31T02:23:27.072Z,20.30
2022-08-31T02:26:00.768Z,20.20
2022-08-31T02:28:33.086Z,20.50
2022-08-31T02:31:05.393Z,20.50
2022-08-31T02:33:47.768Z,20.90
2022-08-31T02:36:20.692Z,21.00
2022-08-31T02:38:53.234Z,21.20
2022-08-31T02:41:25.182Z,20.70
2022-08-31T02:43:57.847Z,20.80
2022-08-31T02:46:29.819Z,20.60
2022-08-31T02:49:22.743Z,20.80
2022-08-31T02:51:59.390Z,20.30
2022-08-31T02:54:31.821Z,20.30
2022-08-31T02:57:04.711Z,20.20
2022-08-31T02:59:38.164Z,19.70
2022-08-31T03:02:10.100Z,20.00
2022-08-31T03:04:45.233Z,19.90
2022-08-31T03:07:20.137Z,20.20
2022-08-31T03:09:53.704Z,20.50
2022-08-31T03:12:25.475Z,20.50
2022-08-31T03:14:58.137Z,20.50
2022-08-31T03:17:30.373Z,20.20
2022-08-31T03:20:05.593Z,20.20
2022-08-31T03:22:38.693Z,20.30
2022-08-31T03:25:10.710Z,20.20
2022-08-31T03:27:43.795Z,20.00
2022-08-31T03:30:19.072Z,20.00
2022-08-31T03:33:02.677Z,20.40
2022-08-31T03:35:38.215Z,20.40
2022-08-31T03:38:13.140Z,21.10
2022-08-31T03:40:46.538Z,20.20
2022-08-31T03:43:19.039Z,20.20
2022-08-31T03:45:51.641Z,20.00
2022-08-31T03:48:23.542Z,20.00
2022-08-31T03:50:56.234Z,19.70
2022-08-31T03:53:31.926Z,19.70
2022-08-31T03:56:08.854Z,19.80
2022-08-31T03:58:46.100Z,20.00
2022-08-31T04:01:36.947Z,19.60
2022-08-31T04:04:27.085Z,19.80
2022-08-31T04:07:21.147Z,19.60
2022-08-31T04:10:28.371Z,19.60
2022-08-31T04:13:20.663Z,19.60
2022-08-31T04:16:15.409Z,19.30
2022-08-31T04:19:08.531Z,19.50
2022-08-31T04:21:53.027Z,19.50
2022-08-31T04:24:25.632Z,19.00
2022-08-31T04:26:57.388Z,19.00
2022-08-31T04:29:30.314Z,19.30
2022-08-31T04:32:03.469Z,19.40
2022-08-31T04:34:36.089Z,19.00
2022-08-31T04:37:10.252Z,18.70
2022-08-31T04:39:50.632Z,18.60
2022-08-31T04:42:23.116Z,18.40
2022-08-31T04:44:56.206Z,18.50
2022-08-31T04:47:28.149Z,18.60
2022-08-31T04:50:01.095Z,18.80
2022-08-31T04:52:33.518Z,19.40
2022-08-31T04:55:06.384Z,20.50
2022-08-31T04:57:39.126Z,19.80
2022-08-31T05:00:11.214Z,20.60
2022-08-31T05:03:04.101Z,20.50
2022-08-31T05:05:40.349Z,20.20
2022-08-31T05:08:13.427Z,20.30
2022-08-31T05:10:46.023Z,20.40
2022-08-31T05:13:18.570Z,20.20
2022-08-31T05:15:54.891Z,19.40
2022-08-31T05:18:27.926Z,19.00
2022-08-31T05:21:13.797Z,18.90
2022-08-31T05:23:49.099Z,18.70
2022-08-31T05:26:26.716Z,18.80
2022-08-31T05:29:01.323Z,18.90
2022-08-31T05:31:36.808Z,19.70
2022-08-31T05:34:12.939Z,19.50
2022-08-31T05:36:46.315Z,19.40
2022-08-31T05:39:18.970Z,19.30
2022-08-31T05:41:52.375Z,20.00
2022-08-31T05:44:27.679Z,20.00
2022-08-31T05:47:05.852Z,20.00
2022-08-31T05:49:40.066Z,19.80
2022-08-31T05:52:19.184Z,20.00
2022-08-31T05:54:57.423Z,19.60
2022-08-31T05:57:29.099Z,20.00
2022-08-31T06:00:02.774Z,20.10
2022-08-31T06:02:44.937Z,19.20
2022-08-31T06:05:19.853Z,19.30
2022-08-31T06:07:53.349Z,19.30
2022-08-31T06:10:26.607Z,19.30
2022-08-31T06:12:59.205Z,19.70
2022-08-31T06:15:31.517Z,19.30
2022-08-31T06:18:07.921Z,18.80
2022-08-31T06:20:40.523Z,18.90
2022-08-31T06:23:12.968Z,19.00
2022-08-31T06:26:02.284Z,19.00
2022-08-31T06:28:35.066Z,19.10
2022-08-31T06:31:12.488Z,19.60
2022-08-31T06:33:45.073Z,19.50
2022-08-31T06:36:35.926Z,18.90
2022-08-31T06:39:19.051Z,18.90
2022-08-31T06:41:57.418Z,19.20
2022-08-31T06:44:38.976Z,19.10
2022-08-31T06:47:14.292Z,18.80
2022-08-31T06:49:48.372Z,18.40
2022-08-31T06:52:21.165Z,18.20
2022-08-31T06:55:10.174Z,18.60
2022-08-31T06:58:14.943Z,18.60
2022-08-31T07:01:35.716Z,18.30
2022-08-31T07:04:29.069Z,18.00
2022-08-31T07:07:01.689Z,18.30
2022-08-31T07:09:34.401Z,18.00
2022-08-31T07:12:07.063Z,18.20
2022-08-31T07:14:40.005Z,18.10
2022-08-31T07:17:12.435Z,18.00
2022-08-31T07:19:45.639Z,18.50
2022-08-31T07:22:18.383Z,18.40
2022-08-31T07:24:54.629Z,18.30
2022-08-31T07:27:27.183Z,18.20
2022-08-31T07:30:05.393Z,18.50
2022-08-31T07:32:38.808Z,18.40
2022-08-31T07:35:11.463Z,19.20
2022-08-31T07:38:30.341Z,19.40
2022-08-31T07:41:21.235Z,19.50
2022-08-31T07:43:55.940Z,19.20
2022-08-31T07:46:31.945Z,19.20
2022-08-31T07:49:14.221Z,19.20
2022-08-31T07:51:57.567Z,19.10
2022-08-31T07:54:34.791Z,18.80
2022-08-31T07:57:30.741Z,18.80
2022-08-31T08:00:09.089Z,18.80
2022-08-31T08:02:52.720Z,18.80
2022-08-31T08:05:29.171Z,18.80
2022-08-31T08:08:25.888Z,18.90
2022-08-31T08:11:06.622Z,19.00
2022-08-31T08:14:10.827Z,19.10
2022-08-31T08:16:55.648Z,19.20
2022-08-31T08:19:40.831Z,19.40
2022-08-31T08:22:12.612Z,19.40
2022-08-31T08:25:13.017Z,19.50
2022-08-31T08:27:56.023Z,19.70
2022-08-31T08:30:33.251Z,20.10
2022-08-31T08:33:07.484Z,20.10
2022-08-31T08:35:44.261Z,20.20
2022-08-31T08:38:16.992Z,20.20
2022-08-31T08:40:51.857Z,20.20
2022-08-31T08:43:31.282Z,20.00
2022-08-31T08:46:20.180Z,20.10
2022-08-31T08:49:02.638Z,20.20
2022-08-31T08:51:39.208Z,20.20
2022-08-31T08:54:15.903Z,20.30
2022-08-31T08:56:49.447Z,20.50
2022-08-31T08:59:24.644Z,22.00
2022-08-31T09:02:02.535Z,20.50
2022-08-31T09:05:09.700Z,20.50
2022-08-31T09:08:25.397Z,20.90
2022-08-31T09:11:19.177Z,21.20
2022-08-31T09:14:08.210Z,21.10
2022-08-31T09:17:03.636Z,20.50
2022-08-31T09:20:02.100Z,20.80
2022-08-31T09:22:56.077Z,21.40
2022-08-31T09:25:33.864Z,21.00
2022-08-31T09:28:34.046Z,21.00
2022-08-31T09:31:06.439Z,21.80
2022-08-31T09:33:49.262Z,21.10
2022-08-31T09:36:23.311Z,21.20
2022-08-31T09:38:56.540Z,21.80
2022-08-31T09:41:37.543Z,21.60
2022-08-31T09:44:34.681Z,22.70
2022-08-31T09:48:03.468Z,21.70
2022-08-31T09:50:47.455Z,21.40
2022-08-31T09:53:44.927Z,22.50
2022-08-31T09:56:21.505Z,21.10
2022-08-31T09:58:55.665Z,21.10
2022-08-31T10:01:35.292Z,21.90
2022-08-31T10:04:17.401Z,21.50
2022-08-31T10:07:47.901Z,21.60
2022-08-31T10:10:29.928Z,21.90
2022-08-31T10:13:38.068Z,22.10
2022-08-31T10:16:30.279Z,22.80
2022-08-31T10:19:36.516Z,23.20
2022-08-31T10:22:23.089Z,25.00
2022-08-31T10:25:04.877Z,23.80
2022-08-31T10:27:42.591Z,23.60
2022-08-31T10:30:29.266Z,23.90
2022-08-31T10:33:21.877Z,25.20
2022-08-31T10:35:55.580Z,25.80
2022-08-31T10:38:48.162Z,25.70
2022-08-31T10:41:28.227Z,25.70
2022-08-31T10:44:05.856Z,25.40
2022-08-31T10:46:38.557Z,25.30
2022-08-31T10:49:12.100Z,25.90
2022-08-31T10:51:56.357Z,25.20
2022-08-31T10:54:49.976Z,26.10
2022-08-31T10:57:54.773Z,25.70
2022-08-31T11:00:46.116Z,25.20
2022-08-31T11:03:52.634Z,26.30
2022-08-31T11:06:41.557Z,25.20
2022-08-31T11:09:25.685Z,26.00
2022-08-31T11:12:18.352Z,26.30
2022-08-31T11:15:10.256Z,25.30
2022-08-31T11:18:10.223Z,25.60
2022-08-31T11:21:07.833Z,25.90
2022-08-31T11:24:12.050Z,26.10
2022-08-31T11:26:45.111Z,25.90
2022-08-31T11:29:36.179Z,26.10
2022-08-31T11:32:24.082Z,26.50
2022-08-31T11:35:08.208Z,25.90
2022-08-31T11:37:52.811Z,25.90
2022-08-31T11:40:43.627Z,27.40
2022-08-31T11:43:36.424Z,26.80
2022-08-31T11:46:27.135Z,27.20
2022-08-31T11:48:59.790Z,26.80
2022-08-31T11:51:40.275Z,26.60
2022-08-31T11:54:27.241Z,26.80
2022-08-31T11:56:59.086Z,26.60
2022-08-31T11:59:42.374Z,26.40
2022-08-31T12:02:20.467Z,26.70
2022-08-31T12:04:53.860Z,26.20
2022-08-31T12:07:47.460Z,27.10
2022-08-31T12:10:55.547Z,26.10
2022-08-31T12:13:37.988Z,25.50
2022-08-31T12:16:36.934Z,26.10
2022-08-31T12:19:39.287Z,26.30
2022-08-31T12:23:20.618Z,26.80
2022-08-31T12:26:48.908Z,26.80
2022-08-31T12:29:28.349Z,26.30
2022-08-31T12:32:19.895Z,25.60
2022-08-31T12:35:11.856Z,25.10
2022-08-31T12:37:45.107Z,25.00
2022-08-31T12:40:27.335Z,25.10
2022-08-31T12:43:06.128Z,24.50
2022-08-31T12:46:02.470Z,25.70
2022-08-31T12:49:05.245Z,24.00
2022-08-31T12:51:48.206Z,24.20
2022-08-31T12:54:56.499Z,23.90
2022-08-31T12:57:47.045Z,24.00
2022-08-31T13:00:32.160Z,23.90
2022-08-31T13:03:18.188Z,24.00
2022-08-31T13:06:24.251Z,24.00
2022-08-31T13:08:59.506Z,24.00
2022-08-31T13:11:43.621Z,24.40
2022-08-31T13:14:21.175Z,25.10
2022-08-31T13:17:06.878Z,24.70
2022-08-31T13:19:43.334Z,24.90
2022-08-31T13:22:28.106Z,25.00
2022-08-31T13:25:37.995Z,25.00
2022-08-31T13:28:14.660Z,25.20
2022-08-31T13:31:03.039Z,25.80
2022-08-31T13:33:40.601Z,26.20
2022-08-31T13:36:31.734Z,26.00
2022-08-31T13:39:21.155Z,25.70
2022-08-31T13:42:09.126Z,27.30
2022-08-31T13:44:45.429Z,25.90
2022-08-31T13:47:27.266Z,25.60
2022-08-31T13:50:14.101Z,25.50
2022-08-31T13:53:16.091Z,27.50
2022-08-31T13:55:48.674Z,26.70
2022-08-31T13:58:32.752Z,24.80
2022-08-31T14:01:19.539Z,24.30
2022-08-31T14:03:59.373Z,24.30
2022-08-31T14:06:38.774Z,24.30
2022-08-31T14:09:18.224Z,24.60
2022-08-31T14:11:53.505Z,25.00
2022-08-31T14:14:29.859Z,26.40
2022-08-31T14:17:03.821Z,25.20
2022-08-31T14:19:40.493Z,26.60
2022-08-31T14:22:40.144Z,25.70
2022-08-31T14:25:16.719Z,26.40
2022-08-31T14:27:48.650Z,26.10
2022-08-31T14:30:21.472Z,26.00
2022-08-31T14:32:58.205Z,27.40
2022-08-31T14:35:30.953Z,26.40
2022-08-31T14:38:02.774Z,26.70
2022-08-31T14:40:37.139Z,26.30
2022-08-31T14:43:15.524Z,25.50
2022-08-31T14:45:48.318Z,25.30
2022-08-31T14:48:20.862Z,25.00
2022-08-31T14:50:53.608Z,24.90
2022-08-31T14:53:25.781Z,24.80
2022-08-31T14:58:51.171Z,25.00
2022-08-31T15:01:24.412Z,25.10
2022-08-31T15:03:57.390Z,24.90
2022-08-31T15:06:32.238Z,25.00
2022-08-31T15:09:05.192Z,24.80
2022-08-31T15:11:41.445Z,25.20
2022-08-31T15:14:14.141Z,24.70
2022-08-31T15:16:49.724Z,24.60
2022-08-31T15:19:23.542Z,24.50
2022-08-31T15:22:02.956Z,24.70
2022-08-31T15:24:45.943Z,25.00
2022-08-31T15:27:18.548Z,26.10
2022-08-31T15:29:56.074Z,24.20
2022-08-31T15:32:28.818Z,24.40
2022-08-31T15:35:01.190Z,24.30
2022-08-31T15:37:33.561Z,24.50
2022-08-31T15:40:06.109Z,24.00
2022-08-31T15:42:40.731Z,24.10
2022-08-31T15:45:13.245Z,24.90
2022-08-31T15:48:03.809Z,25.50
2022-08-31T15:50:36.675Z,24.60
2022-08-31T15:53:11.225Z,23.90
2022-08-31T15:55:45.270Z,23.90
2022-08-31T15:58:24.485Z,23.90
2022-08-31T16:00:57.093Z,25.10
2022-08-31T16:03:34.348Z,24.10
2022-08-31T16:06:07.201Z,24.00
2022-08-31T16:08:41.744Z,23.70
2022-08-31T16:11:14.013Z,23.70
2022-08-31T16:13:55.399Z,23.60
2022-08-31T16:16:32.012Z,23.70
2022-08-31T16:19:08.693Z,23.80
2022-08-31T16:21:46.375Z,24.00
2022-08-31T16:24:23.032Z,24.70
2022-08-31T16:26:58.873Z,24.20
2022-08-31T16:29:31.741Z,24.20
2022-08-31T16:32:06.776Z,24.50
2022-08-31T16:34:40.894Z,24.40
2022-08-31T16:37:12.941Z,24.50
2022-08-31T16:39:47.596Z,24.40
2022-08-31T16:42:19.604Z,25.90
2022-08-31T16:44:52.077Z,24.40
2022-08-31T16:47:24.363Z,24.40
2022-08-31T16:50:00.562Z,24.50
2022-08-31T16:52:33.096Z,24.20
2022-08-31T16:55:06.882Z,24.20
2022-08-31T16:57:39.744Z,24.30
2022-08-31T17:00:12.753Z,24.40
2022-08-31T17:02:47.292Z,24.20
2022-08-31T17:05:19.767Z,25.00
2022-08-31T17:07:51.762Z,25.00
2022-08-31T17:10:24.952Z,24.00
2022-08-31T17:12:56.904Z,24.00
2022-08-31T17:15:31.024Z,24.00
2022-08-31T17:18:05.788Z,25.30
2022-08-31T17:20:39.880Z,23.90
2022-08-31T17:23:16.432Z,23.70
2022-08-31T17:25:48.793Z,23.80
2022-08-31T17:28:24.222Z,23.70
2022-08-31T17:30:58.300Z,23.50
2022-08-31T17:33:30.241Z,23.50
2022-08-31T17:36:02.860Z,23.50
2022-08-31T17:38:35.253Z,23.40
2022-08-31T17:41:09.028Z,24.20
2022-08-31T17:43:40.984Z,23.40
2022-08-31T17:46:14.877Z,22.90
2022-08-31T17:48:47.464Z,25.20
2022-08-31T17:51:29.521Z,23.70
2022-08-31T17:54:05.863Z,22.90
2022-08-31T17:56:47.351Z,22.70
2022-08-31T17:59:23.033Z,22.50
2022-08-31T18:01:57.434Z,22.50
2022-08-31T18:04:30.594Z,22.70
2022-08-31T18:07:04.243Z,22.40
2022-08-31T18:09:40.443Z,22.70
2022-08-31T18:12:14.918Z,22.30
2022-08-31T18:14:47.091Z,22.10
2022-08-31T18:17:22.799Z,21.80
2022-08-31T18:19:55.774Z,21.60
2022-08-31T18:22:29.176Z,22.40
2022-08-31T18:25:02.081Z,21.40
2022-08-31T18:27:34.595Z,21.40
2022-08-31T18:30:09.470Z,21.40
2022-08-31T18:32:43.148Z,21.20
2022-08-31T18:35:20.494Z,22.80
2022-08-31T18:37:52.466Z,20.90
2022-08-31T18:40:44.396Z,21.90
2022-08-31T18:43:34.966Z,21.20
2022-08-31T18:46:07.696Z,21.70
2022-08-31T18:48:40.073Z,21.70
2022-08-31T18:51:16.468Z,21.60
2022-08-31T18:53:52.409Z,21.30
2022-08-31T18:56:29.083Z,21.50
2022-08-31T18:59:01.968Z,21.20
2022-08-31T19:01:35.015Z,21.20
2022-08-31T19:04:07.650Z,21.30
2022-08-31T19:06:42.524Z,21.10
2022-08-31T19:09:14.637Z,22.00
2022-08-31T19:11:51.393Z,20.70
2022-08-31T19:14:26.338Z,20.90
2022-08-31T19:17:03.743Z,20.80
2022-08-31T19:19:37.261Z,21.20
2022-08-31T19:22:11.088Z,21.40
2022-08-31T19:24:43.292Z,21.50
2022-08-31T19:27:16.229Z,21.60
2022-08-31T19:29:48.419Z,21.00
2022-08-31T19:32:21.584Z,21.70
2022-08-31T19:34:53.871Z,21.90
2022-08-31T19:37:26.942Z,21.20
2022-08-31T19:39:59.226Z,20.80
2022-08-31T19:45:24.674Z,20.70
2022-08-31T19:48:01.374Z,20.80
2022-08-31T19:50:41.641Z,20.90
2022-08-31T19:53:20.797Z,21.10
2022-08-31T19:55:55.662Z,21.20
2022-08-31T19:58:27.883Z,21.10
2022-08-31T20:01:01.442Z,21.00
2022-08-31T20:03:34.326Z,20.90
2022-08-31T20:06:08.477Z,21.20
2022-08-31T20:08:42.872Z,20.60
2022-08-31T20:11:21.423Z,20.80
2022-08-31T20:13:55.654Z,21.10
2022-08-31T20:16:33.375Z,21.20
2022-08-31T20:19:06.713Z,20.70
2022-08-31T20:21:41.799Z,20.90
2022-08-31T20:24:14.224Z,20.60
2022-08-31T20:26:52.060Z,20.30
2022-08-31T20:34:08.125Z,20.40
2022-08-31T20:36:41.251Z,20.30
2022-08-31T20:39:14.621Z,19.90
2022-08-31T20:41:52.682Z,20.40
2022-08-31T20:44:36.468Z,20.80
2022-08-31T20:47:29.644Z,20.80
2022-08-31T20:50:03.799Z,20.20
2022-08-31T20:52:36.461Z,19.70
2022-08-31T20:55:08.544Z,19.70
2022-08-31T20:57:41.274Z,20.20
2022-08-31T21:00:14.709Z,20.20
2022-08-31T21:02:50.107Z,20.30
2022-08-31T21:05:37.954Z,21.80
2022-08-31T21:08:12.438Z,20.50
2022-08-31T21:10:44.556Z,22.20
2022-08-31T21:13:17.204Z,21.50
2022-08-31T21:15:49.067Z,20.40
2022-08-31T21:18:21.559Z,20.00
2022-08-31T21:20:55.245Z,20.20
2022-08-31T21:23:32.325Z,19.80
2022-08-31T21:26:08.543Z,20.50
2022-08-31T21:28:41.090Z,19.50
2022-08-31T21:31:15.779Z,19.50
2022-08-31T21:34:02.385Z,19.90
2022-08-31T21:36:35.687Z,19.30
2022-08-31T21:39:18.568Z,19.30
2022-08-31T21:42:01.341Z,19.60
2022-08-31T21:44:37.397Z,20.40
2022-08-31T21:47:15.160Z,20.30
2022-08-31T21:49:49.749Z,20.90
2022-08-31T21:52:29.467Z,20.50
2022-08-31T21:55:05.551Z,19.60
2022-08-31T21:57:44.672Z,19.50
2022-08-31T22:00:22.119Z,19.30
2022-08-31T22:02:55.989Z,19.60
2022-08-31T22:05:32.535Z,19.40
2022-08-31T22:08:04.934Z,19.50
2022-08-31T22:10:44.553Z,20.60
2022-08-31T22:13:17.483Z,19.50
2022-08-31T22:15:49.370Z,19.40
2022-08-31T22:21:18.495Z,21.70
2022-08-31T22:23:52.971Z,19.70
2022-08-31T22:26:27.955Z,19.50
2022-08-31T22:29:00.555Z,19.10
2022-08-31T22:31:34.092Z,18.90
2022-08-31T22:34:11.340Z,19.40
2022-08-31T22:36:46.573Z,18.90
2022-08-31T22:39:28.327Z,19.40
2022-08-31T22:42:01.816Z,17.90
2022-08-31T22:47:27.057Z,19.10
2022-08-31T22:50:51.997Z,20.20
2022-08-31T22:53:24.836Z,18.80
2022-08-31T22:55:56.713Z,19.00
2022-08-31T22:58:29.474Z,18.90
2022-08-31T23:01:01.243Z,19.20
2022-08-31T23:03:33.666Z,18.80
2022-08-31T23:06:06.945Z,19.40
2022-08-31T23:08:40.343Z,19.50
2022-08-31T23:11:12.760Z,19.10
2022-08-31T23:13:55.798Z,19.20
2022-08-31T23:16:34.650Z,19.60
2022-08-31T23:19:14.535Z,19.40
2022-08-31T23:21:52.524Z,19.60
2022-08-31T23:24:31.798Z,20.00
2022-08-31T23:27:06.079Z,19.50
2022-08-31T23:29:47.098Z,20.00
2022-08-31T23:32:23.659Z,20.00
2022-08-31T23:34:57.245Z,19.50
2022-08-31T23:37:31.089Z,19.00
2022-08-31T23:40:05.623Z,18.60
2022-08-31T23:42:41.362Z,19.40
2022-08-31T23:45:13.163Z,19.00
2022-08-31T23:47:45.664Z,19.30
2022-08-31T23:50:17.480Z,19.50
2022-08-31T23:52:52.458Z,19.50
2022-08-31T23:55:28.246Z,18.90
2022-08-31T23:58:02.536Z,19.30
